sensor_id;sensor_type;location;lat;lon;timestamp;P1;durP1;ratioP1;P2;durP2;ratioP2
68365;SDS011;55283;51.466;5.478;2023-02-28T00:01:19;3.13;;;2.10;;
68365;SDS011;55283;51.466;5.478;2023-02-28T00:03:48;2.75;;;1.98;;
68365;SDS011;55283;51.466;5.478;2023-02-28T00:06:13;3.13;;;2.10;;
68365;SDS011;55283;51.466;5.478;2023-02-28T00:08:42;2.80;;;2.20;;
68365;SDS011;55283;51.466;5.478;2023-02-28T00:11:10;3.20;;;2.33;;
68365;SDS011;55283;51.466;5.478;2023-02-28T00:13:37;3.38;;;2.15;;
68365;SDS011;55283;51.466;5.478;2023-02-28T00:16:08;2.92;;;2.00;;
68365;SDS011;55283;51.466;5.478;2023-02-28T00:18:36;2.87;;;2.20;;
68365;SDS011;55283;51.466;5.478;2023-02-28T00:21:02;3.50;;;2.30;;
68365;SDS011;55283;51.466;5.478;2023-02-28T00:23:30;3.22;;;2.30;;
68365;SDS011;55283;51.466;5.478;2023-02-28T00:25:56;2.87;;;2.07;;
68365;SDS011;55283;51.466;5.478;2023-02-28T00:28:22;2.47;;;2.20;;
68365;SDS011;55283;51.466;5.478;2023-02-28T00:30:47;2.83;;;2.00;;
68365;SDS011;55283;51.466;5.478;2023-02-28T00:33:13;3.40;;;2.07;;
68365;SDS011;55283;51.466;5.478;2023-02-28T00:35:39;3.58;;;2.33;;
68365;SDS011;55283;51.466;5.478;2023-02-28T00:38:07;2.97;;;2.00;;
68365;SDS011;55283;51.466;5.478;2023-02-28T00:40:32;3.80;;;2.20;;
68365;SDS011;55283;51.466;5.478;2023-02-28T00:43:06;3.42;;;2.10;;
68365;SDS011;55283;51.466;5.478;2023-02-28T00:45:34;3.53;;;2.00;;
68365;SDS011;55283;51.466;5.478;2023-02-28T00:48:00;3.00;;;2.22;;
68365;SDS011;55283;51.466;5.478;2023-02-28T00:50:25;2.67;;;2.10;;
68365;SDS011;55283;51.466;5.478;2023-02-28T00:52:51;3.30;;;2.00;;
68365;SDS011;55283;51.466;5.478;2023-02-28T00:55:16;2.87;;;2.23;;
68365;SDS011;55283;51.466;5.478;2023-02-28T00:57:43;2.53;;;2.13;;
68365;SDS011;55283;51.466;5.478;2023-02-28T01:00:09;3.53;;;2.20;;
68365;SDS011;55283;51.466;5.478;2023-02-28T01:02:37;2.70;;;2.10;;
68365;SDS011;55283;51.466;5.478;2023-02-28T01:05:02;4.33;;;2.30;;
68365;SDS011;55283;51.466;5.478;2023-02-28T01:07:28;2.90;;;2.38;;
68365;SDS011;55283;51.466;5.478;2023-02-28T01:09:53;3.00;;;2.10;;
68365;SDS011;55283;51.466;5.478;2023-02-28T01:12:19;2.90;;;2.20;;
68365;SDS011;55283;51.466;5.478;2023-02-28T01:14:44;2.80;;;2.30;;
68365;SDS011;55283;51.466;5.478;2023-02-28T01:17:12;2.50;;;2.20;;
68365;SDS011;55283;51.466;5.478;2023-02-28T01:19:37;2.50;;;2.00;;
68365;SDS011;55283;51.466;5.478;2023-02-28T01:22:05;3.30;;;2.13;;
68365;SDS011;55283;51.466;5.478;2023-02-28T01:24:31;2.70;;;2.00;;
68365;SDS011;55283;51.466;5.478;2023-02-28T01:27:00;2.35;;;2.00;;
68365;SDS011;55283;51.466;5.478;2023-02-28T01:29:25;3.67;;;2.20;;
68365;SDS011;55283;51.466;5.478;2023-02-28T01:31:53;2.77;;;2.10;;
68365;SDS011;55283;51.466;5.478;2023-02-28T01:34:19;2.50;;;1.98;;
68365;SDS011;55283;51.466;5.478;2023-02-28T01:36:49;2.63;;;2.20;;
68365;SDS011;55283;51.466;5.478;2023-02-28T01:39:14;2.60;;;1.90;;
68365;SDS011;55283;51.466;5.478;2023-02-28T01:41:39;3.25;;;2.05;;
68365;SDS011;55283;51.466;5.478;2023-02-28T01:44:07;2.27;;;1.97;;
68365;SDS011;55283;51.466;5.478;2023-02-28T01:46:52;4.00;;;2.10;;
68365;SDS011;55283;51.466;5.478;2023-02-28T01:49:18;3.03;;;2.20;;
68365;SDS011;55283;51.466;5.478;2023-02-28T01:51:45;3.08;;;2.22;;
68365;SDS011;55283;51.466;5.478;2023-02-28T01:54:21;3.03;;;2.20;;
68365;SDS011;55283;51.466;5.478;2023-02-28T01:56:54;3.47;;;2.30;;
68365;SDS011;55283;51.466;5.478;2023-02-28T01:59:23;3.33;;;2.25;;
68365;SDS011;55283;51.466;5.478;2023-02-28T02:01:58;2.30;;;2.10;;
68365;SDS011;55283;51.466;5.478;2023-02-28T02:04:25;2.63;;;1.92;;
68365;SDS011;55283;51.466;5.478;2023-02-28T02:06:58;3.28;;;2.10;;
68365;SDS011;55283;51.466;5.478;2023-02-28T02:09:24;2.83;;;2.20;;
68365;SDS011;55283;51.466;5.478;2023-02-28T02:11:49;2.70;;;2.10;;
68365;SDS011;55283;51.466;5.478;2023-02-28T02:28:22;2.70;;;2.28;;
68365;SDS011;55283;51.466;5.478;2023-02-28T02:31:35;3.10;;;2.20;;
68365;SDS011;55283;51.466;5.478;2023-02-28T02:34:34;3.27;;;2.17;;
68365;SDS011;55283;51.466;5.478;2023-02-28T02:37:09;3.50;;;2.33;;
68365;SDS011;55283;51.466;5.478;2023-02-28T02:42:56;2.23;;;2.00;;
68365;SDS011;55283;51.466;5.478;2023-02-28T02:45:28;2.50;;;2.17;;
68365;SDS011;55283;51.466;5.478;2023-02-28T02:48:04;3.45;;;2.10;;
68365;SDS011;55283;51.466;5.478;2023-02-28T02:50:38;3.37;;;2.00;;
68365;SDS011;55283;51.466;5.478;2023-02-28T02:53:06;2.20;;;2.00;;
68365;SDS011;55283;51.466;5.478;2023-02-28T02:55:34;3.63;;;2.15;;
68365;SDS011;55283;51.466;5.478;2023-02-28T02:58:08;2.72;;;2.17;;
68365;SDS011;55283;51.466;5.478;2023-02-28T03:00:42;2.73;;;2.13;;
68365;SDS011;55283;51.466;5.478;2023-02-28T03:03:12;4.07;;;2.20;;
68365;SDS011;55283;51.466;5.478;2023-02-28T03:05:42;3.03;;;2.38;;
68365;SDS011;55283;51.466;5.478;2023-02-28T03:08:12;2.37;;;1.90;;
68365;SDS011;55283;51.466;5.478;2023-02-28T03:10:59;3.10;;;2.00;;
68365;SDS011;55283;51.466;5.478;2023-02-28T03:21:30;2.78;;;2.20;;
68365;SDS011;55283;51.466;5.478;2023-02-28T03:24:10;3.20;;;2.30;;
68365;SDS011;55283;51.466;5.478;2023-02-28T03:26:43;2.97;;;2.28;;
68365;SDS011;55283;51.466;5.478;2023-02-28T03:29:22;2.90;;;2.15;;
68365;SDS011;55283;51.466;5.478;2023-02-28T03:31:54;3.53;;;2.10;;
68365;SDS011;55283;51.466;5.478;2023-02-28T03:34:36;2.55;;;2.00;;
68365;SDS011;55283;51.466;5.478;2023-02-28T03:37:08;3.08;;;2.20;;
68365;SDS011;55283;51.466;5.478;2023-02-28T03:39:49;2.97;;;2.30;;
68365;SDS011;55283;51.466;5.478;2023-02-28T03:42:22;2.58;;;1.85;;
68365;SDS011;55283;51.466;5.478;2023-02-28T03:44:57;2.58;;;2.10;;
68365;SDS011;55283;51.466;5.478;2023-02-28T03:53:06;3.25;;;2.20;;
68365;SDS011;55283;51.466;5.478;2023-02-28T03:55:40;2.38;;;2.08;;
68365;SDS011;55283;51.466;5.478;2023-02-28T03:58:17;2.57;;;2.00;;
68365;SDS011;55283;51.466;5.478;2023-02-28T04:01:07;3.17;;;2.00;;
68365;SDS011;55283;51.466;5.478;2023-02-28T04:03:39;3.78;;;2.00;;
68365;SDS011;55283;51.466;5.478;2023-02-28T04:06:06;2.90;;;1.80;;
68365;SDS011;55283;51.466;5.478;2023-02-28T04:08:40;3.13;;;2.00;;
68365;SDS011;55283;51.466;5.478;2023-02-28T04:11:27;2.33;;;2.00;;
68365;SDS011;55283;51.466;5.478;2023-02-28T04:14:00;3.13;;;2.10;;
68365;SDS011;55283;51.466;5.478;2023-02-28T04:16:31;2.30;;;2.10;;
68365;SDS011;55283;51.466;5.478;2023-02-28T04:18:57;2.70;;;2.20;;
68365;SDS011;55283;51.466;5.478;2023-02-28T04:21:30;2.85;;;2.03;;
68365;SDS011;55283;51.466;5.478;2023-02-28T04:23:56;2.63;;;1.77;;
68365;SDS011;55283;51.466;5.478;2023-02-28T04:26:32;2.97;;;2.10;;
68365;SDS011;55283;51.466;5.478;2023-02-28T04:28:59;2.95;;;2.10;;
68365;SDS011;55283;51.466;5.478;2023-02-28T04:31:25;3.03;;;2.00;;
68365;SDS011;55283;51.466;5.478;2023-02-28T04:33:50;2.70;;;2.05;;
68365;SDS011;55283;51.466;5.478;2023-02-28T04:36:16;2.50;;;1.90;;
68365;SDS011;55283;51.466;5.478;2023-02-28T04:39:00;2.47;;;1.92;;
68365;SDS011;55283;51.466;5.478;2023-02-28T04:41:25;2.38;;;2.00;;
68365;SDS011;55283;51.466;5.478;2023-02-28T04:43:51;2.10;;;1.70;;
68365;SDS011;55283;51.466;5.478;2023-02-28T04:46:17;2.97;;;2.20;;
68365;SDS011;55283;51.466;5.478;2023-02-28T04:48:43;1.97;;;1.80;;
68365;SDS011;55283;51.466;5.478;2023-02-28T04:51:10;3.00;;;2.00;;
68365;SDS011;55283;51.466;5.478;2023-02-28T04:53:42;3.45;;;1.90;;
68365;SDS011;55283;51.466;5.478;2023-02-28T04:56:08;2.57;;;2.00;;
68365;SDS011;55283;51.466;5.478;2023-02-28T04:58:42;2.83;;;2.10;;
68365;SDS011;55283;51.466;5.478;2023-02-28T05:03:54;2.08;;;1.88;;
68365;SDS011;55283;51.466;5.478;2023-02-28T05:06:22;2.40;;;2.00;;
68365;SDS011;55283;51.466;5.478;2023-02-28T05:08:52;2.43;;;1.90;;
68365;SDS011;55283;51.466;5.478;2023-02-28T05:11:25;2.53;;;2.00;;
68365;SDS011;55283;51.466;5.478;2023-02-28T05:14:02;1.90;;;1.70;;
68365;SDS011;55283;51.466;5.478;2023-02-28T05:16:31;2.80;;;1.80;;
68365;SDS011;55283;51.466;5.478;2023-02-28T05:18:57;2.70;;;2.00;;
68365;SDS011;55283;51.466;5.478;2023-02-28T05:21:24;2.95;;;2.10;;
68365;SDS011;55283;51.466;5.478;2023-02-28T05:23:58;2.22;;;2.00;;
68365;SDS011;55283;51.466;5.478;2023-02-28T05:26:25;2.50;;;2.00;;
68365;SDS011;55283;51.466;5.478;2023-02-28T05:28:52;2.80;;;1.90;;
68365;SDS011;55283;51.466;5.478;2023-02-28T05:31:18;2.97;;;1.87;;
68365;SDS011;55283;51.466;5.478;2023-02-28T05:33:45;2.28;;;1.90;;
68365;SDS011;55283;51.466;5.478;2023-02-28T05:36:11;3.17;;;1.80;;
68365;SDS011;55283;51.466;5.478;2023-02-28T05:38:37;2.63;;;1.90;;
68365;SDS011;55283;51.466;5.478;2023-02-28T05:41:06;2.00;;;1.65;;
68365;SDS011;55283;51.466;5.478;2023-02-28T05:43:35;2.13;;;1.73;;
68365;SDS011;55283;51.466;5.478;2023-02-28T05:46:23;2.42;;;1.60;;
68365;SDS011;55283;51.466;5.478;2023-02-28T05:48:47;2.00;;;1.70;;
68365;SDS011;55283;51.466;5.478;2023-02-28T05:51:13;2.03;;;1.80;;
68365;SDS011;55283;51.466;5.478;2023-02-28T05:53:38;2.00;;;1.80;;
68365;SDS011;55283;51.466;5.478;2023-02-28T05:56:04;1.93;;;1.80;;
68365;SDS011;55283;51.466;5.478;2023-02-28T05:58:30;1.70;;;1.60;;
68365;SDS011;55283;51.466;5.478;2023-02-28T06:00:59;2.38;;;1.73;;
68365;SDS011;55283;51.466;5.478;2023-02-28T06:03:25;3.63;;;1.80;;
68365;SDS011;55283;51.466;5.478;2023-02-28T06:05:51;2.30;;;1.67;;
68365;SDS011;55283;51.466;5.478;2023-02-28T06:08:19;1.98;;;1.60;;
68365;SDS011;55283;51.466;5.478;2023-02-28T06:10:44;3.10;;;1.97;;
68365;SDS011;55283;51.466;5.478;2023-02-28T06:13:10;1.95;;;1.75;;
68365;SDS011;55283;51.466;5.478;2023-02-28T06:15:37;2.60;;;1.90;;
68365;SDS011;55283;51.466;5.478;2023-02-28T06:18:03;2.10;;;1.70;;
68365;SDS011;55283;51.466;5.478;2023-02-28T06:20:29;3.50;;;1.60;;
68365;SDS011;55283;51.466;5.478;2023-02-28T06:22:55;2.27;;;1.70;;
68365;SDS011;55283;51.466;5.478;2023-02-28T06:25:23;2.42;;;1.80;;
68365;SDS011;55283;51.466;5.478;2023-02-28T06:27:49;2.58;;;1.80;;
68365;SDS011;55283;51.466;5.478;2023-02-28T06:30:15;1.90;;;1.70;;
68365;SDS011;55283;51.466;5.478;2023-02-28T06:32:41;2.90;;;2.17;;
68365;SDS011;55283;51.466;5.478;2023-02-28T06:35:06;1.83;;;1.53;;
68365;SDS011;55283;51.466;5.478;2023-02-28T06:37:32;2.73;;;1.90;;
68365;SDS011;55283;51.466;5.478;2023-02-28T06:40:00;3.33;;;1.80;;
68365;SDS011;55283;51.466;5.478;2023-02-28T06:42:26;2.77;;;1.90;;
68365;SDS011;55283;51.466;5.478;2023-02-28T06:44:53;5.25;;;1.70;;
68365;SDS011;55283;51.466;5.478;2023-02-28T06:47:22;2.33;;;1.60;;
68365;SDS011;55283;51.466;5.478;2023-02-28T06:49:48;2.07;;;1.60;;
68365;SDS011;55283;51.466;5.478;2023-02-28T06:52:14;2.83;;;1.70;;
68365;SDS011;55283;51.466;5.478;2023-02-28T06:54:39;3.10;;;1.50;;
68365;SDS011;55283;51.466;5.478;2023-02-28T06:57:08;2.83;;;1.70;;
68365;SDS011;55283;51.466;5.478;2023-02-28T06:59:33;3.45;;;1.60;;
68365;SDS011;55283;51.466;5.478;2023-02-28T07:02:00;2.40;;;1.63;;
68365;SDS011;55283;51.466;5.478;2023-02-28T07:04:27;1.85;;;1.50;;
68365;SDS011;55283;51.466;5.478;2023-02-28T07:06:55;7.18;;;1.90;;
68365;SDS011;55283;51.466;5.478;2023-02-28T07:09:22;4.37;;;1.60;;
68365;SDS011;55283;51.466;5.478;2023-02-28T07:11:48;6.60;;;1.77;;
68365;SDS011;55283;51.466;5.478;2023-02-28T07:14:13;4.90;;;1.70;;
68365;SDS011;55283;51.466;5.478;2023-02-28T07:16:39;5.17;;;1.80;;
68365;SDS011;55283;51.466;5.478;2023-02-28T07:19:04;2.33;;;1.70;;
68365;SDS011;55283;51.466;5.478;2023-02-28T07:21:30;4.93;;;2.60;;
68365;SDS011;55283;51.466;5.478;2023-02-28T07:23:55;3.57;;;2.80;;
68365;SDS011;55283;51.466;5.478;2023-02-28T07:26:21;4.38;;;2.72;;
68365;SDS011;55283;51.466;5.478;2023-02-28T07:28:47;4.23;;;2.87;;
68365;SDS011;55283;51.466;5.478;2023-02-28T07:31:14;3.95;;;2.80;;
68365;SDS011;55283;51.466;5.478;2023-02-28T07:33:39;7.33;;;3.30;;
68365;SDS011;55283;51.466;5.478;2023-02-28T07:36:09;3.92;;;2.92;;
68365;SDS011;55283;51.466;5.478;2023-02-28T07:38:42;5.10;;;2.78;;
68365;SDS011;55283;51.466;5.478;2023-02-28T07:41:09;3.90;;;2.60;;
68365;SDS011;55283;51.466;5.478;2023-02-28T07:43:34;4.97;;;2.53;;
68365;SDS011;55283;51.466;5.478;2023-02-28T07:46:04;4.45;;;2.55;;
68365;SDS011;55283;51.466;5.478;2023-02-28T07:48:37;3.33;;;2.40;;
68365;SDS011;55283;51.466;5.478;2023-02-28T07:51:08;3.80;;;2.10;;
68365;SDS011;55283;51.466;5.478;2023-02-28T07:53:33;3.95;;;2.05;;
68365;SDS011;55283;51.466;5.478;2023-02-28T07:56:00;3.43;;;2.20;;
68365;SDS011;55283;51.466;5.478;2023-02-28T07:58:26;3.88;;;2.00;;
68365;SDS011;55283;51.466;5.478;2023-02-28T08:00:55;2.83;;;1.97;;
68365;SDS011;55283;51.466;5.478;2023-02-28T08:03:22;2.72;;;2.10;;
68365;SDS011;55283;51.466;5.478;2023-02-28T08:05:48;3.83;;;1.85;;
68365;SDS011;55283;51.466;5.478;2023-02-28T08:08:14;3.83;;;1.70;;
68365;SDS011;55283;51.466;5.478;2023-02-28T08:10:40;3.63;;;1.67;;
68365;SDS011;55283;51.466;5.478;2023-02-28T08:13:08;2.03;;;1.60;;
68365;SDS011;55283;51.466;5.478;2023-02-28T08:15:36;1.87;;;1.53;;
68365;SDS011;55283;51.466;5.478;2023-02-28T08:18:02;3.97;;;1.88;;
68365;SDS011;55283;51.466;5.478;2023-02-28T08:20:27;18.37;;;1.67;;
68365;SDS011;55283;51.466;5.478;2023-02-28T08:22:53;3.78;;;1.60;;
68365;SDS011;55283;51.466;5.478;2023-02-28T08:25:21;2.07;;;1.50;;
68365;SDS011;55283;51.466;5.478;2023-02-28T08:27:46;4.25;;;1.60;;
68365;SDS011;55283;51.466;5.478;2023-02-28T08:30:15;3.30;;;1.50;;
68365;SDS011;55283;51.466;5.478;2023-02-28T08:32:40;4.25;;;1.60;;
68365;SDS011;55283;51.466;5.478;2023-02-28T08:35:06;3.63;;;1.60;;
68365;SDS011;55283;51.466;5.478;2023-02-28T08:37:32;3.03;;;1.70;;
68365;SDS011;55283;51.466;5.478;2023-02-28T08:39:57;4.27;;;1.40;;
68365;SDS011;55283;51.466;5.478;2023-02-28T08:42:23;2.93;;;1.60;;
68365;SDS011;55283;51.466;5.478;2023-02-28T08:44:49;5.72;;;1.30;;
68365;SDS011;55283;51.466;5.478;2023-02-28T08:47:14;4.13;;;1.30;;
68365;SDS011;55283;51.466;5.478;2023-02-28T08:49:40;3.00;;;1.30;;
68365;SDS011;55283;51.466;5.478;2023-02-28T08:52:07;4.13;;;1.40;;
68365;SDS011;55283;51.466;5.478;2023-02-28T08:54:33;3.67;;;1.50;;
68365;SDS011;55283;51.466;5.478;2023-02-28T08:57:00;3.57;;;1.30;;
68365;SDS011;55283;51.466;5.478;2023-02-28T08:59:25;2.10;;;1.40;;
68365;SDS011;55283;51.466;5.478;2023-02-28T09:01:51;5.70;;;1.60;;
68365;SDS011;55283;51.466;5.478;2023-02-28T09:04:16;3.23;;;1.43;;
68365;SDS011;55283;51.466;5.478;2023-02-28T09:06:42;2.05;;;1.50;;
68365;SDS011;55283;51.466;5.478;2023-02-28T09:09:12;3.60;;;1.40;;
68365;SDS011;55283;51.466;5.478;2023-02-28T09:11:37;2.25;;;1.33;;
68365;SDS011;55283;51.466;5.478;2023-02-28T09:14:03;2.47;;;1.13;;
68365;SDS011;55283;51.466;5.478;2023-02-28T09:16:29;2.88;;;1.30;;
68365;SDS011;55283;51.466;5.478;2023-02-28T09:18:59;1.97;;;1.20;;
68365;SDS011;55283;51.466;5.478;2023-02-28T09:21:25;2.60;;;1.30;;
68365;SDS011;55283;51.466;5.478;2023-02-28T09:23:55;3.17;;;1.33;;
68365;SDS011;55283;51.466;5.478;2023-02-28T09:26:25;3.33;;;1.20;;
68365;SDS011;55283;51.466;5.478;2023-02-28T09:28:53;1.92;;;1.30;;
68365;SDS011;55283;51.466;5.478;2023-02-28T09:31:24;2.67;;;1.10;;
68365;SDS011;55283;51.466;5.478;2023-02-28T09:33:52;3.07;;;1.30;;
68365;SDS011;55283;51.466;5.478;2023-02-28T09:36:21;1.80;;;1.17;;
68365;SDS011;55283;51.466;5.478;2023-02-28T09:38:47;1.88;;;1.20;;
68365;SDS011;55283;51.466;5.478;2023-02-28T09:43:45;1.27;;;1.10;;
68365;SDS011;55283;51.466;5.478;2023-02-28T09:46:18;2.40;;;1.00;;
68365;SDS011;55283;51.466;5.478;2023-02-28T09:49:11;4.33;;;1.40;;
68365;SDS011;55283;51.466;5.478;2023-02-28T09:54:21;3.67;;;1.25;;
68365;SDS011;55283;51.466;5.478;2023-02-28T09:56:53;1.30;;;1.05;;
68365;SDS011;55283;51.466;5.478;2023-02-28T10:02:35;5.78;;;1.08;;
68365;SDS011;55283;51.466;5.478;2023-02-28T10:05:16;3.50;;;1.23;;
68365;SDS011;55283;51.466;5.478;2023-02-28T10:13:02;1.83;;;1.00;;
68365;SDS011;55283;51.466;5.478;2023-02-28T10:15:37;3.00;;;1.20;;
68365;SDS011;55283;51.466;5.478;2023-02-28T10:18:04;1.25;;;1.00;;
68365;SDS011;55283;51.466;5.478;2023-02-28T10:20:37;2.80;;;1.27;;
68365;SDS011;55283;51.466;5.478;2023-02-28T10:23:09;2.03;;;1.20;;
68365;SDS011;55283;51.466;5.478;2023-02-28T10:25:45;1.40;;;1.13;;
68365;SDS011;55283;51.466;5.478;2023-02-28T10:28:23;1.65;;;1.10;;
68365;SDS011;55283;51.466;5.478;2023-02-28T10:30:56;2.15;;;1.10;;
68365;SDS011;55283;51.466;5.478;2023-02-28T10:33:35;1.03;;;0.90;;
68365;SDS011;55283;51.466;5.478;2023-02-28T10:36:01;3.78;;;1.20;;
68365;SDS011;55283;51.466;5.478;2023-02-28T10:38:35;1.90;;;1.20;;
68365;SDS011;55283;51.466;5.478;2023-02-28T10:41:11;1.30;;;0.90;;
68365;SDS011;55283;51.466;5.478;2023-02-28T10:43:53;2.60;;;1.20;;
68365;SDS011;55283;51.466;5.478;2023-02-28T10:46:41;2.47;;;1.00;;
68365;SDS011;55283;51.466;5.478;2023-02-28T10:49:48;1.20;;;1.10;;
68365;SDS011;55283;51.466;5.478;2023-02-28T10:52:02;2.73;;;1.40;;
68365;SDS011;55283;51.466;5.478;2023-02-28T10:54:32;2.20;;;1.00;;
68365;SDS011;55283;51.466;5.478;2023-02-28T10:57:16;1.75;;;1.10;;
68365;SDS011;55283;51.466;5.478;2023-02-28T10:59:43;1.60;;;1.07;;
68365;SDS011;55283;51.466;5.478;2023-02-28T11:04:58;3.35;;;1.30;;
68365;SDS011;55283;51.466;5.478;2023-02-28T11:07:23;6.63;;;2.57;;
68365;SDS011;55283;51.466;5.478;2023-02-28T11:09:56;7.78;;;3.45;;
68365;SDS011;55283;51.466;5.478;2023-02-28T11:12:31;20.37;;;6.00;;
68365;SDS011;55283;51.466;5.478;2023-02-28T11:15:04;31.25;;;10.18;;
68365;SDS011;55283;51.466;5.478;2023-02-28T11:17:43;25.45;;;8.25;;
68365;SDS011;55283;51.466;5.478;2023-02-28T11:20:20;24.70;;;8.63;;
68365;SDS011;55283;51.466;5.478;2023-02-28T11:22:48;27.50;;;9.32;;
68365;SDS011;55283;51.466;5.478;2023-02-28T11:25:20;22.42;;;8.07;;
68365;SDS011;55283;51.466;5.478;2023-02-28T11:27:53;20.73;;;7.45;;
68365;SDS011;55283;51.466;5.478;2023-02-28T11:30:31;20.13;;;6.80;;
68365;SDS011;55283;51.466;5.478;2023-02-28T11:33:00;15.15;;;6.60;;
68365;SDS011;55283;51.466;5.478;2023-02-28T11:35:41;18.08;;;6.15;;
68365;SDS011;55283;51.466;5.478;2023-02-28T11:38:10;17.67;;;6.07;;
68365;SDS011;55283;51.466;5.478;2023-02-28T11:48:42;13.90;;;4.47;;
68365;SDS011;55283;51.466;5.478;2023-02-28T11:51:32;18.02;;;5.15;;
68365;SDS011;55283;51.466;5.478;2023-02-28T11:54:17;19.13;;;5.15;;
68365;SDS011;55283;51.466;5.478;2023-02-28T11:56:54;16.73;;;4.70;;
68365;SDS011;55283;51.466;5.478;2023-02-28T12:02:20;12.85;;;4.60;;
68365;SDS011;55283;51.466;5.478;2023-02-28T12:10:22;10.43;;;4.10;;
68365;SDS011;55283;51.466;5.478;2023-02-28T12:18:13;12.27;;;4.35;;
68365;SDS011;55283;51.466;5.478;2023-02-28T12:27:13;8.98;;;3.67;;
68365;SDS011;55283;51.466;5.478;2023-02-28T12:29:50;8.02;;;3.70;;
68365;SDS011;55283;51.466;5.478;2023-02-28T12:32:32;8.40;;;3.67;;
68365;SDS011;55283;51.466;5.478;2023-02-28T12:35:02;10.45;;;3.72;;
68365;SDS011;55283;51.466;5.478;2023-02-28T12:37:46;9.25;;;3.72;;
68365;SDS011;55283;51.466;5.478;2023-02-28T12:40:22;9.97;;;3.90;;
68365;SDS011;55283;51.466;5.478;2023-02-28T12:42:58;14.52;;;3.95;;
68365;SDS011;55283;51.466;5.478;2023-02-28T12:45:35;9.40;;;3.55;;
68365;SDS011;55283;51.466;5.478;2023-02-28T12:48:08;15.02;;;3.95;;
68365;SDS011;55283;51.466;5.478;2023-02-28T12:50:38;8.30;;;3.50;;
68365;SDS011;55283;51.466;5.478;2023-02-28T12:56:19;8.77;;;3.90;;
68365;SDS011;55283;51.466;5.478;2023-02-28T12:58:46;7.93;;;3.50;;
68365;SDS011;55283;51.466;5.478;2023-02-28T13:09:53;8.38;;;3.35;;
68365;SDS011;55283;51.466;5.478;2023-02-28T13:12:23;6.68;;;3.20;;
68365;SDS011;55283;51.466;5.478;2023-02-28T13:14:49;8.10;;;3.27;;
68365;SDS011;55283;51.466;5.478;2023-02-28T13:17:18;8.23;;;3.30;;
68365;SDS011;55283;51.466;5.478;2023-02-28T13:19:56;6.35;;;3.33;;
68365;SDS011;55283;51.466;5.478;2023-02-28T13:27:47;8.57;;;3.50;;
68365;SDS011;55283;51.466;5.478;2023-02-28T13:33:32;8.40;;;3.40;;
68365;SDS011;55283;51.466;5.478;2023-02-28T13:38:58;7.35;;;3.28;;
68365;SDS011;55283;51.466;5.478;2023-02-28T13:44:39;7.78;;;3.22;;
68365;SDS011;55283;51.466;5.478;2023-02-28T14:02:47;5.67;;;3.10;;
68365;SDS011;55283;51.466;5.478;2023-02-28T14:05:29;7.60;;;2.92;;
68365;SDS011;55283;51.466;5.478;2023-02-28T14:08:04;6.47;;;2.90;;
68365;SDS011;55283;51.466;5.478;2023-02-28T14:10:42;4.70;;;2.70;;
68365;SDS011;55283;51.466;5.478;2023-02-28T14:16:54;5.75;;;2.75;;
68365;SDS011;55283;51.466;5.478;2023-02-28T14:19:12;6.15;;;2.97;;
68365;SDS011;55283;51.466;5.478;2023-02-28T14:21:56;5.80;;;3.00;;
68365;SDS011;55283;51.466;5.478;2023-02-28T14:27:45;5.57;;;2.70;;
68365;SDS011;55283;51.466;5.478;2023-02-28T14:30:53;5.27;;;2.40;;
68365;SDS011;55283;51.466;5.478;2023-02-28T14:33:23;5.70;;;2.80;;
68365;SDS011;55283;51.466;5.478;2023-02-28T14:38:27;5.43;;;2.90;;
68365;SDS011;55283;51.466;5.478;2023-02-28T14:41:03;6.50;;;3.17;;
68365;SDS011;55283;51.466;5.478;2023-02-28T14:43:47;5.50;;;2.53;;
68365;SDS011;55283;51.466;5.478;2023-02-28T14:46:14;5.82;;;2.90;;
68365;SDS011;55283;51.466;5.478;2023-02-28T14:48:42;5.73;;;2.60;;
68365;SDS011;55283;51.466;5.478;2023-02-28T14:51:11;4.80;;;2.33;;
68365;SDS011;55283;51.466;5.478;2023-02-28T14:53:42;5.20;;;2.78;;
68365;SDS011;55283;51.466;5.478;2023-02-28T14:56:17;5.80;;;2.80;;
68365;SDS011;55283;51.466;5.478;2023-02-28T14:58:55;3.83;;;2.45;;
68365;SDS011;55283;51.466;5.478;2023-02-28T15:01:22;7.15;;;2.75;;
68365;SDS011;55283;51.466;5.478;2023-02-28T15:03:56;5.10;;;3.07;;
68365;SDS011;55283;51.466;5.478;2023-02-28T15:06:32;4.22;;;2.47;;
68365;SDS011;55283;51.466;5.478;2023-02-28T15:09:10;4.75;;;2.45;;
68365;SDS011;55283;51.466;5.478;2023-02-28T15:11:48;6.20;;;2.60;;
68365;SDS011;55283;51.466;5.478;2023-02-28T15:14:19;6.10;;;2.57;;
68365;SDS011;55283;51.466;5.478;2023-02-28T15:16:47;6.10;;;2.67;;
68365;SDS011;55283;51.466;5.478;2023-02-28T15:19:27;4.32;;;2.35;;
68365;SDS011;55283;51.466;5.478;2023-02-28T15:22:04;5.20;;;2.37;;
68365;SDS011;55283;51.466;5.478;2023-02-28T15:24:35;4.90;;;2.58;;
68365;SDS011;55283;51.466;5.478;2023-02-28T15:27:09;4.30;;;2.30;;
68365;SDS011;55283;51.466;5.478;2023-02-28T15:29:46;4.13;;;2.20;;
68365;SDS011;55283;51.466;5.478;2023-02-28T15:33:00;4.85;;;2.47;;
68365;SDS011;55283;51.466;5.478;2023-02-28T15:35:18;5.97;;;2.58;;
68365;SDS011;55283;51.466;5.478;2023-02-28T15:38:00;5.07;;;2.70;;
68365;SDS011;55283;51.466;5.478;2023-02-28T15:40:49;5.33;;;2.70;;
68365;SDS011;55283;51.466;5.478;2023-02-28T15:53:31;5.35;;;2.60;;
68365;SDS011;55283;51.466;5.478;2023-02-28T15:56:04;3.80;;;2.10;;
68365;SDS011;55283;51.466;5.478;2023-02-28T15:58:37;4.43;;;2.30;;
68365;SDS011;55283;51.466;5.478;2023-02-28T16:01:05;5.25;;;2.45;;
68365;SDS011;55283;51.466;5.478;2023-02-28T16:03:41;2.85;;;2.15;;
68365;SDS011;55283;51.466;5.478;2023-02-28T16:08:55;4.25;;;2.28;;
68365;SDS011;55283;51.466;5.478;2023-02-28T16:11:20;4.00;;;2.23;;
68365;SDS011;55283;51.466;5.478;2023-02-28T16:13:52;5.00;;;2.53;;
68365;SDS011;55283;51.466;5.478;2023-02-28T16:16:19;5.45;;;2.10;;
68365;SDS011;55283;51.466;5.478;2023-02-28T16:18:48;4.10;;;2.43;;
68365;SDS011;55283;51.466;5.478;2023-02-28T16:21:18;4.35;;;2.40;;
68365;SDS011;55283;51.466;5.478;2023-02-28T16:23:43;4.68;;;2.40;;
68365;SDS011;55283;51.466;5.478;2023-02-28T16:26:12;3.17;;;2.17;;
68365;SDS011;55283;51.466;5.478;2023-02-28T16:28:46;3.78;;;2.13;;
68365;SDS011;55283;51.466;5.478;2023-02-28T16:31:14;4.67;;;2.10;;
68365;SDS011;55283;51.466;5.478;2023-02-28T16:33:42;3.28;;;1.90;;
68365;SDS011;55283;51.466;5.478;2023-02-28T16:36:15;4.53;;;2.00;;
68365;SDS011;55283;51.466;5.478;2023-02-28T16:38:42;4.40;;;2.20;;
68365;SDS011;55283;51.466;5.478;2023-02-28T16:41:14;4.78;;;1.90;;
68365;SDS011;55283;51.466;5.478;2023-02-28T16:43:44;2.95;;;2.00;;
68365;SDS011;55283;51.466;5.478;2023-02-28T16:46:11;4.37;;;2.27;;
68365;SDS011;55283;51.466;5.478;2023-02-28T16:48:40;3.90;;;1.70;;
68365;SDS011;55283;51.466;5.478;2023-02-28T16:51:11;3.47;;;2.00;;
68365;SDS011;55283;51.466;5.478;2023-02-28T16:53:37;4.65;;;2.05;;
68365;SDS011;55283;51.466;5.478;2023-02-28T16:56:03;3.50;;;1.80;;
68365;SDS011;55283;51.466;5.478;2023-02-28T16:58:29;3.80;;;2.00;;
68365;SDS011;55283;51.466;5.478;2023-02-28T17:00:57;2.57;;;1.90;;
68365;SDS011;55283;51.466;5.478;2023-02-28T17:03:23;5.13;;;2.00;;
68365;SDS011;55283;51.466;5.478;2023-02-28T17:05:50;2.50;;;1.80;;
68365;SDS011;55283;51.466;5.478;2023-02-28T17:08:18;7.88;;;1.92;;
68365;SDS011;55283;51.466;5.478;2023-02-28T17:10:47;2.40;;;1.65;;
68365;SDS011;55283;51.466;5.478;2023-02-28T17:13:14;5.53;;;1.73;;
68365;SDS011;55283;51.466;5.478;2023-02-28T17:15:40;2.50;;;1.77;;
68365;SDS011;55283;51.466;5.478;2023-02-28T17:18:10;4.17;;;1.90;;
68365;SDS011;55283;51.466;5.478;2023-02-28T17:20:40;4.28;;;2.10;;
68365;SDS011;55283;51.466;5.478;2023-02-28T17:23:11;3.83;;;1.90;;
68365;SDS011;55283;51.466;5.478;2023-02-28T17:25:37;4.13;;;2.00;;
68365;SDS011;55283;51.466;5.478;2023-02-28T17:28:03;3.33;;;1.90;;
68365;SDS011;55283;51.466;5.478;2023-02-28T17:30:28;4.50;;;1.88;;